Time;durP1;ratioP1;P1;durP2;ratioP2;P2;SDS_P1;SDS_P2;PMS_P1;PMS_P2;Temp;Humidity;BMP_temperature;BMP_pressure;BME280_temperature;BME280_humidity;BME280_pressure;Samples;Min_cycle;Max_cycle;Signal;HPM_P1;HPM_P2
2023/05/17 00:00:54;;;;;;;13.80;3.83;;;10.30;99.90;;;;;;5026205;28;20057;-84
2023/05/17 00:03:19;;;;;;;14.82;3.63;;;10.30;99.90;;;;;;5023514;28;20052;-82
2023/05/17 00:05:45;;;;;;;11.57;2.97;;;10.20;99.90;;;;;;5023251;28;20035;-83
2023/05/17 00:08:11;;;;;;;15.90;3.25;;;10.20;99.90;;;;;;5024902;28;20051;-83
2023/05/17 00:10:36;;;;;;;20.13;4.78;;;10.20;99.90;;;;;;5026005;28;20411;-82
2023/05/17 00:13:02;;;;;;;21.77;3.55;;;10.10;99.90;;;;;;5020070;28;20202;-82
2023/05/17 00:15:28;;;;;;;16.98;3.28;;;10.00;99.90;;;;;;5021389;28;20549;-82
2023/05/17 00:17:54;;;;;;;15.10;2.67;;;10.00;99.90;;;;;;5023649;28;20120;-82
2023/05/17 00:20:20;;;;;;;16.08;2.78;;;9.90;99.90;;;;;;5021370;28;20077;-82
2023/05/17 00:22:46;;;;;;;15.50;3.38;;;9.90;99.90;;;;;;5010201;28;20105;-82
2023/05/17 00:25:11;;;;;;;15.05;2.67;;;9.80;99.90;;;;;;5032540;28;20045;-83
2023/05/17 00:27:37;;;;;;;24.58;4.05;;;9.70;99.90;;;;;;5042174;28;20052;-83
2023/05/17 00:30:03;;;;;;;15.95;3.22;;;9.60;99.90;;;;;;5026175;28;20047;-82
2023/05/17 00:32:29;;;;;;;19.95;3.00;;;9.60;99.90;;;;;;5046788;28;20069;-84
2023/05/17 00:34:55;;;;;;;14.30;3.00;;;9.50;99.90;;;;;;5025218;28;21889;-83
2023/05/17 00:37:20;;;;;;;18.63;2.70;;;9.50;99.90;;;;;;5028792;28;20458;-82
2023/05/17 00:39:46;;;;;;;21.92;3.50;;;9.40;99.90;;;;;;5041692;28;20068;-83
2023/05/17 00:42:11;;;;;;;17.00;2.95;;;9.30;99.90;;;;;;5008244;28;20510;-83
2023/05/17 00:44:37;;;;;;;13.82;2.47;;;9.30;99.90;;;;;;5046874;28;20068;-82
2023/05/17 00:47:03;;;;;;;12.75;2.67;;;9.20;99.90;;;;;;5025141;28;20105;-82
2023/05/17 00:49:28;;;;;;;11.52;2.70;;;9.10;99.90;;;;;;5028159;28;20033;-85
2023/05/17 00:51:55;;;;;;;17.73;3.45;;;9.10;99.90;;;;;;5045952;28;20621;-84
2023/05/17 00:54:21;;;;;;;16.80;3.95;;;9.00;99.90;;;;;;5024361;28;20037;-83
2023/05/17 00:56:47;;;;;;;18.13;4.15;;;8.90;99.90;;;;;;5026503;28;20450;-83
2023/05/17 00:59:14;;;;;;;18.30;4.38;;;8.80;99.90;;;;;;5025777;28;20048;-83
2023/05/17 01:01:43;;;;;;;18.17;3.22;;;8.70;99.90;;;;;;5043893;28;20048;-83
2023/05/17 01:04:09;;;;;;;14.88;3.13;;;8.80;99.90;;;;;;5032281;28;20045;-83
2023/05/17 01:06:35;;;;;;;22.02;3.15;;;8.70;99.90;;;;;;5025721;28;20037;-83
2023/05/17 01:09:02;;;;;;;19.00;3.67;;;8.70;99.90;;;;;;5033857;28;20098;-83
2023/05/17 01:11:54;;;;;;;19.90;3.25;;;8.70;99.90;;;;;;5044204;28;20041;-84
2023/05/17 01:14:27;;;;;;;21.25;4.25;;;8.60;99.90;;;;;;5033156;28;20033;-83
2023/05/17 01:17:19;;;;;;;16.45;3.30;;;7.90;99.90;;;;;;5043778;28;20048;-83
2023/05/17 01:20:11;;;;;;;14.80;2.85;;;8.60;99.90;;;;;;5038848;28;20048;-84
2023/05/17 01:23:05;;;;;;;16.27;3.08;;;8.50;99.90;;;;;;5031174;28;20094;-84
2023/05/17 01:25:39;;;;;;;17.90;3.78;;;8.40;99.90;;;;;;5030941;28;20400;-83
2023/05/17 01:28:06;;;;;;;18.98;3.53;;;8.40;99.90;;;;;;5046469;28;20037;-83
2023/05/17 01:30:33;;;;;;;16.85;2.90;;;8.40;99.90;;;;;;5030029;28;20040;-82
2023/05/17 01:33:01;;;;;;;13.30;2.58;;;8.30;99.90;;;;;;5044755;28;20391;-83
2023/05/17 01:35:26;;;;;;;19.40;3.20;;;8.30;99.90;;;;;;5046305;28;20037;-82
2023/05/17 01:37:55;;;;;;;22.10;4.32;;;8.30;99.90;;;;;;5027248;28;20419;-84
2023/05/17 01:40:21;;;;;;;20.95;3.17;;;8.30;99.90;;;;;;5045717;28;20037;-84
2023/05/17 01:43:01;;;;;;;21.08;3.28;;;8.30;99.90;;;;;;5035427;28;20049;-82
2023/05/17 01:45:31;;;;;;;22.75;3.58;;;8.20;99.90;;;;;;5045762;28;20041;-84
2023/05/17 01:48:11;;;;;;;21.20;3.33;;;8.20;99.90;;;;;;5027045;28;20147;-83
2023/05/17 01:50:38;;;;;;;24.48;4.78;;;8.20;99.90;;;;;;5022306;28;20073;-82
2023/05/17 01:53:10;;;;;;;22.05;3.00;;;8.10;99.90;;;;;;5048091;28;20049;-83
2023/05/17 01:55:47;;;;;;;19.60;3.75;;;8.10;99.90;;;;;;5033991;28;20048;-83
2023/05/17 01:58:13;;;;;;;18.25;2.78;;;8.20;99.90;;;;;;5046868;28;20114;-83
2023/05/17 02:00:42;;;;;;;21.38;4.53;;;8.10;99.90;;;;;;5050796;28;20456;-83
2023/05/17 02:03:15;;;;;;;19.85;4.25;;;8.10;99.90;;;;;;5048260;28;20044;-82
2023/05/17 02:05:41;;;;;;;19.23;3.25;;;8.00;99.90;;;;;;5032942;28;20033;-83
2023/05/17 02:08:06;;;;;;;18.35;3.25;;;8.10;99.90;;;;;;5034091;28;20105;-82
2023/05/17 02:10:32;;;;;;;16.65;3.13;;;8.10;99.90;;;;;;5050482;28;20041;-82
2023/05/17 02:12:57;;;;;;;18.55;3.03;;;8.10;99.90;;;;;;5034733;28;20041;-83
2023/05/17 02:15:23;;;;;;;16.88;3.65;;;8.10;99.90;;;;;;5032414;28;20092;-82
2023/05/17 02:17:49;;;;;;;20.75;3.97;;;8.10;99.90;;;;;;5049242;28;20546;-83
2023/05/17 02:20:14;;;;;;;19.23;3.88;;;8.20;99.90;;;;;;5045138;28;20547;-83
2023/05/17 02:22:40;;;;;;;18.55;3.03;;;8.20;99.90;;;;;;5029998;28;20084;-82
2023/05/17 02:25:06;;;;;;;16.65;3.00;;;8.20;99.90;;;;;;5049106;28;20043;-82
2023/05/17 02:27:32;;;;;;;14.15;2.80;;;8.20;99.90;;;;;;5032596;28;20479;-83
2023/05/17 02:29:57;;;;;;;17.33;4.05;;;8.10;99.90;;;;;;5023096;28;20033;-83
2023/05/17 02:32:23;;;;;;;15.40;3.90;;;8.10;99.90;;;;;;5056324;28;20055;-82
2023/05/17 02:34:49;;;;;;;17.67;3.20;;;8.10;99.90;;;;;;5053871;28;20402;-82
2023/05/17 02:37:14;;;;;;;17.77;3.60;;;8.10;99.90;;;;;;5036813;28;20056;-83
2023/05/17 02:39:40;;;;;;;19.30;3.80;;;8.00;99.90;;;;;;5057661;28;20055;-83
2023/05/17 02:42:05;;;;;;;17.02;2.83;;;8.00;99.90;;;;;;5055246;28;20044;-83
2023/05/17 02:44:31;;;;;;;12.15;2.72;;;8.00;99.90;;;;;;5024083;28;20547;-82
2023/05/17 02:46:56;;;;;;;18.30;3.13;;;8.00;99.90;;;;;;5053716;28;20112;-83
2023/05/17 02:49:22;;;;;;;21.17;3.28;;;7.90;99.90;;;;;;5039051;28;20041;-83
2023/05/17 02:51:48;;;;;;;19.77;2.97;;;8.00;99.90;;;;;;5035210;28;20041;-82
2023/05/17 02:54:13;;;;;;;19.42;2.78;;;7.90;99.90;;;;;;5039250;28;20108;-82
2023/05/17 02:56:39;;;;;;;15.25;2.20;;;7.90;99.90;;;;;;5058378;28;20037;-83
2023/05/17 02:59:04;;;;;;;19.45;3.58;;;7.90;99.90;;;;;;5056245;28;20040;-83
2023/05/17 03:01:30;;;;;;;24.60;4.13;;;8.10;99.90;;;;;;5042298;28;20049;-82
2023/05/17 03:03:55;;;;;;;20.88;3.63;;;7.80;99.90;;;;;;5038835;28;20108;-83
2023/05/17 03:06:21;;;;;;;18.25;2.80;;;7.80;99.90;;;;;;5022123;28;20037;-83
2023/05/17 03:08:46;;;;;;;16.23;2.88;;;7.80;99.90;;;;;;5044094;28;20483;-82
2023/05/17 03:11:12;;;;;;;17.67;2.72;;;7.80;99.90;;;;;;5059042;28;20033;-83
2023/05/17 03:13:38;;;;;;;11.73;2.13;;;7.80;99.90;;;;;;5037869;28;20117;-83
2023/05/17 03:16:04;;;;;;;17.35;2.78;;;7.70;99.90;;;;;;5039462;28;20049;-82
2023/05/17 03:18:29;;;;;;;20.85;2.92;;;7.70;99.90;;;;;;5019879;28;20040;-83
2023/05/17 03:20:55;;;;;;;21.73;2.63;;;7.60;99.90;;;;;;5035049;28;20075;-82
2023/05/17 03:23:20;;;;;;;17.38;3.15;;;7.60;99.90;;;;;;5035738;28;20112;-83
2023/05/17 03:25:46;;;;;;;19.35;3.65;;;7.70;99.90;;;;;;5035987;28;20100;-83
2023/05/17 03:28:11;;;;;;;15.75;2.72;;;7.60;99.90;;;;;;5021969;28;20029;-82
2023/05/17 03:30:37;;;;;;;17.98;2.65;;;7.70;99.90;;;;;;5017528;28;20053;-82
2023/05/17 03:33:02;;;;;;;19.45;3.55;;;7.70;99.90;;;;;;5032610;28;20072;-82
2023/05/17 03:35:28;;;;;;;16.42;2.70;;;7.80;99.90;;;;;;5034678;28;20057;-82
2023/05/17 03:37:53;;;;;;;19.73;3.20;;;8.00;99.90;;;;;;5038187;28;20055;-83
2023/05/17 03:40:19;;;;;;;15.30;3.33;;;8.80;99.90;;;;;;5019339;28;20033;-82
2023/05/17 03:42:45;;;;;;;18.92;3.17;;;8.00;99.90;;;;;;5037294;28;20127;-83
2023/05/17 03:45:11;;;;;;;21.10;3.30;;;7.90;99.90;;;;;;5053000;28;20032;-82
2023/05/17 03:47:37;;;;;;;13.98;2.92;;;7.90;99.90;;;;;;5036407;28;20072;-83
2023/05/17 03:50:04;;;;;;;15.60;1.80;;;7.90;99.90;;;;;;5033396;28;20086;-83
2023/05/17 03:52:29;;;;;;;13.63;2.78;;;7.90;99.90;;;;;;5054117;28;20045;-83
2023/05/17 03:54:55;;;;;;;17.45;3.50;;;8.00;99.90;;;;;;5057231;28;20045;-82
2023/05/17 03:57:20;;;;;;;13.40;1.80;;;8.50;99.90;;;;;;5051295;28;20059;-83
2023/05/17 03:59:46;;;;;;;12.75;2.38;;;7.90;99.90;;;;;;5055220;28;20040;-83
2023/05/17 04:02:14;;;;;;;16.92;3.38;;;7.90;99.90;;;;;;5054026;28;20052;-82
2023/05/17 04:04:40;;;;;;;16.05;2.65;;;7.90;99.90;;;;;;5052414;28;20029;-82
2023/05/17 04:07:06;;;;;;;13.85;2.63;;;7.90;99.90;;;;;;5039657;28;20037;-83
2023/05/17 04:09:33;;;;;;;7.97;1.77;;;8.00;99.90;;;;;;5055863;28;20025;-83
2023/05/17 04:11:59;;;;;;;16.13;2.92;;;8.20;99.90;;;;;;5034096;28;20055;-83
2023/05/17 04:14:25;;;;;;;14.32;2.85;;;8.10;99.90;;;;;;5039053;28;20828;-82
2023/05/17 04:16:51;;;;;;;12.98;2.20;;;8.10;99.90;;;;;;5035920;28;20037;-83
2023/05/17 04:19:16;;;;;;;8.75;1.48;;;8.10;99.90;;;;;;5038222;28;20072;-83
2023/05/17 04:21:43;;;;;;;13.13;2.63;;;8.10;99.90;;;;;;5031569;28;20041;-82
2023/05/17 04:24:08;;;;;;;16.42;1.88;;;8.20;99.90;;;;;;5031164;28;20044;-81
2023/05/17 04:26:34;;;;;;;13.25;1.50;;;8.30;99.90;;;;;;5029443;28;20470;-82
2023/05/17 04:29:00;;;;;;;14.00;1.55;;;8.50;99.90;;;;;;5012378;28;20047;-83
2023/05/17 04:31:25;;;;;;;10.48;1.90;;;8.70;99.90;;;;;;5048003;28;20553;-83
2023/05/17 04:33:51;;;;;;;9.85;1.50;;;8.70;99.90;;;;;;5017477;28;20049;-83
2023/05/17 04:36:17;;;;;;;13.07;2.10;;;8.70;99.90;;;;;;5050647;28;20103;-82
2023/05/17 04:38:42;;;;;;;7.68;1.35;;;8.60;99.90;;;;;;5031520;28;20526;-83
2023/05/17 04:41:08;;;;;;;7.43;1.38;;;8.60;99.90;;;;;;5032039;28;20041;-82
2023/05/17 04:47:04;;;;;;;10.77;1.30;;;8.70;99.90;;;;;;5031810;28;20107;-83
2023/05/17 04:49:30;;;;;;;9.05;1.58;;;8.80;99.90;;;;;;5022365;28;20033;-83
2023/05/17 04:51:55;;;;;;;17.15;2.28;;;8.70;99.90;;;;;;5020288;28;20029;-83
2023/05/17 04:54:21;;;;;;;10.88;2.42;;;8.80;99.90;;;;;;5017061;28;20060;-83
2023/05/17 04:56:47;;;;;;;9.43;1.23;;;8.80;99.90;;;;;;5011461;28;20072;-82
2023/05/17 04:59:12;;;;;;;10.93;1.40;;;8.90;99.90;;;;;;5014451;28;20084;-81
2023/05/17 05:01:38;;;;;;;9.15;1.50;;;8.90;99.90;;;;;;5047588;28;20102;-82
2023/05/17 05:04:05;;;;;;;14.15;1.77;;;9.00;99.90;;;;;;5033058;28;20045;-83
2023/05/17 05:06:32;;;;;;;14.70;3.40;;;9.10;99.90;;;;;;5033891;28;20095;-83
2023/05/17 05:08:58;;;;;;;9.60;1.50;;;9.20;99.90;;;;;;5047864;28;20068;-82
2023/05/17 05:11:24;;;;;;;7.85;1.00;;;9.30;99.90;;;;;;5034500;28;20071;-83
2023/05/17 05:13:50;;;;;;;7.22;1.33;;;9.30;99.90;;;;;;5033964;28;20045;-81
2023/05/17 05:16:15;;;;;;;7.05;1.58;;;9.50;99.90;;;;;;5031877;28;20040;-82
2023/05/17 05:18:41;;;;;;;13.85;1.65;;;9.80;99.90;;;;;;5009398;28;20041;-83
2023/05/17 05:21:06;;;;;;;9.85;1.27;;;10.00;99.90;;;;;;5050189;28;20052;-83
2023/05/17 05:23:32;;;;;;;5.55;1.17;;;10.30;99.90;;;;;;5014281;28;20100;-82
2023/05/17 05:25:57;;;;;;;12.68;1.58;;;10.40;99.90;;;;;;5046537;28;20114;-82
2023/05/17 05:28:23;;;;;;;8.10;1.42;;;10.90;99.90;;;;;;5028876;28;20051;-83
2023/05/17 05:30:48;;;;;;;9.02;1.33;;;11.10;99.90;;;;;;5027330;28;20128;-82
2023/05/17 05:33:14;;;;;;;8.68;1.10;;;11.10;99.90;;;;;;5027741;28;20095;-83
2023/05/17 05:35:40;;;;;;;7.78;1.08;;;11.00;99.90;;;;;;5026911;28;20469;-82
2023/05/17 05:38:05;;;;;;;14.52;1.60;;;12.40;99.90;;;;;;5029911;28;20064;-82
2023/05/17 05:40:31;;;;;;;10.10;1.27;;;13.50;99.90;;;;;;5013865;28;20513;-82
2023/05/17 05:42:56;;;;;;;9.77;1.73;;;14.00;99.90;;;;;;5027441;28;20052;-83
2023/05/17 05:45:22;;;;;;;8.80;1.30;;;15.10;99.90;;;;;;5044301;28;20037;-83
2023/05/17 05:47:48;;;;;;;10.27;1.45;;;17.00;99.90;;;;;;5023022;28;20045;-82
2023/05/17 05:50:14;;;;;;;9.23;1.17;;;18.20;99.90;;;;;;5011217;28;20036;-83
2023/05/17 05:52:40;;;;;;;4.97;0.95;;;18.70;99.90;;;;;;5028026;28;21790;-83
2023/05/17 05:55:06;;;;;;;6.25;1.50;;;18.70;99.90;;;;;;5023741;28;20029;-82
2023/05/17 05:57:31;;;;;;;8.95;1.17;;;18.50;99.90;;;;;;5024696;28;20483;-82
2023/05/17 05:59:57;;;;;;;8.00;1.40;;;17.90;99.90;;;;;;5043988;28;20037;-83
2023/05/17 06:02:23;;;;;;;4.57;1.42;;;17.60;99.90;;;;;;5031882;28;20483;-83
2023/05/17 06:04:49;;;;;;;11.27;1.52;;;17.10;99.50;;;;;;5043688;28;20064;-84
2023/05/17 06:07:14;;;;;;;9.13;1.77;;;16.30;99.40;;;;;;5031727;28;20060;-82
2023/05/17 06:09:41;;;;;;;9.38;1.27;;;15.90;99.40;;;;;;5033897;28;20062;-82
2023/05/17 06:12:07;;;;;;;5.50;0.80;;;15.70;99.30;;;;;;5027126;28;20094;-83
2023/05/17 06:14:33;;;;;;;7.40;1.20;;;15.60;99.90;;;;;;5018850;28;20048;-83
2023/05/17 06:16:58;;;;;;;10.55;0.85;;;15.80;99.90;;;;;;5018826;28;20051;-82
2023/05/17 06:19:24;;;;;;;11.45;1.48;;;15.90;99.90;;;;;;5019487;28;21502;-82
2023/05/17 06:21:52;;;;;;;7.78;1.02;;;16.00;99.90;;;;;;5039902;28;20041;-83
2023/05/17 06:24:18;;;;;;;5.22;0.80;;;16.00;99.90;;;;;;5024183;28;20052;-83
2023/05/17 06:26:43;;;;;;;11.07;1.30;;;16.00;99.90;;;;;;5019939;28;20033;-82
2023/05/17 06:29:09;;;;;;;10.80;1.77;;;15.80;99.90;;;;;;5037980;28;20040;-82
2023/05/17 06:49:50;;;;;;;9.57;1.50;;;14.60;99.90;;;;;;4960603;28;20061;-84
2023/05/17 07:04:11;;;;;;;9.82;1.38;;;14.80;99.90;;;;;;5037258;28;20044;-83
2023/05/17 07:07:00;;;;;;;11.38;1.98;;;15.10;99.90;;;;;;5002967;28;20087;-83
2023/05/17 07:10:40;;;;;;;11.70;2.00;;;14.90;99.00;;;;;;5002594;28;20060;-83
2023/05/17 07:18:03;;;;;;;10.55;1.70;;;15.10;99.90;;;;;;4863482;29;20028;-83
2023/05/17 07:21:02;;;;;;;11.25;1.67;;;15.70;99.40;;;;;;4903511;29;20066;-83
2023/05/17 07:24:14;;;;;;;8.93;1.58;;;16.00;98.00;;;;;;4944390;28;20081;-83
2023/05/17 07:27:18;;;;;;;15.20;2.25;;;15.90;98.90;;;;;;5004544;28;20051;-84
2023/05/17 07:34:12;;;;;;;10.75;1.60;;;15.50;97.80;;;;;;5035721;28;20095;-83
2023/05/17 07:38:01;;;;;;;8.50;1.48;;;15.20;98.30;;;;;;5012348;28;20075;-84
2023/05/17 07:44:48;;;;;;;9.02;2.00;;;14.60;97.80;;;;;;4954505;28;20053;-81
2023/05/17 07:51:38;;;;;;;10.23;2.25;;;14.80;98.60;;;;;;4956471;28;20050;-82
2023/05/17 07:54:54;;;;;;;10.23;1.95;;;15.50;98.80;;;;;;4891618;28;20054;-84
2023/05/17 07:57:20;;;;;;;8.68;1.55;;;15.60;96.70;;;;;;4947303;28;20144;-82
2023/05/17 07:59:45;;;;;;;13.23;2.00;;;15.50;97.90;;;;;;4998920;28;20438;-83
2023/05/17 08:02:11;;;;;;;13.35;1.60;;;15.30;97.90;;;;;;5010944;28;20148;-83
2023/05/17 08:04:37;;;;;;;11.20;1.75;;;15.00;97.70;;;;;;5013033;28;20073;-83
2023/05/17 08:07:02;;;;;;;8.93;1.55;;;15.00;98.00;;;;;;5013969;28;20130;-83
2023/05/17 08:09:28;;;;;;;15.05;2.25;;;15.30;98.30;;;;;;4998986;28;20040;-83
2023/05/17 08:11:54;;;;;;;14.05;2.05;;;15.40;98.20;;;;;;5026549;28;20662;-83
2023/05/17 08:14:23;;;;;;;11.45;2.10;;;15.30;98.80;;;;;;5027396;28;20073;-83
2023/05/17 08:16:50;;;;;;;10.50;2.35;;;15.40;98.40;;;;;;5013627;28;20171;-83
2023/05/17 08:19:16;;;;;;;13.70;2.10;;;15.40;98.70;;;;;;5014229;28;20090;-83
2023/05/17 08:21:42;;;;;;;10.93;2.00;;;15.70;98.70;;;;;;5010629;28;20048;-84
2023/05/17 08:24:08;;;;;;;9.73;1.88;;;16.10;99.10;;;;;;4997327;28;22236;-84
2023/05/17 08:26:34;;;;;;;14.93;2.67;;;16.20;98.50;;;;;;5006905;28;20029;-83
2023/05/17 08:29:03;;;;;;;6.80;1.52;;;16.40;98.50;;;;;;5028836;28;20099;-84
2023/05/17 08:31:31;;;;;;;10.25;1.98;;;16.30;97.90;;;;;;5028488;28;20041;-83
2023/05/17 08:33:56;;;;;;;14.93;2.08;;;16.30;97.80;;;;;;5028099;28;21103;-82
2023/05/17 08:36:22;;;;;;;8.57;2.38;;;16.10;97.50;;;;;;5000256;28;20136;-83
2023/05/17 08:38:48;;;;;;;6.85;1.50;;;16.00;97.80;;;;;;5013075;28;20053;-85
2023/05/17 08:41:14;;;;;;;6.95;1.88;;;15.90;97.70;;;;;;4999864;28;20510;-84
2023/05/17 08:43:40;;;;;;;8.13;1.27;;;15.30;96.90;;;;;;5015786;28;20049;-83
2023/05/17 08:46:08;;;;;;;11.50;2.15;;;15.00;96.60;;;;;;5017698;28;20044;-83
2023/05/17 08:48:37;;;;;;;8.65;1.50;;;15.20;97.50;;;;;;5020278;28;20063;-85
2023/05/17 08:51:03;;;;;;;10.95;1.85;;;15.50;97.90;;;;;;5038282;28;21062;-84
2023/05/17 08:53:28;;;;;;;9.82;1.75;;;15.50;97.40;;;;;;5018775;28;20037;-84
2023/05/17 08:55:59;;;;;;;6.65;1.27;;;15.30;97.10;;;;;;5033423;28;20515;-83
2023/05/17 08:58:37;;;;;;;6.35;1.33;;;15.30;96.90;;;;;;5031521;28;20053;-83
2023/05/17 09:01:05;;;;;;;7.50;1.30;;;15.20;97.80;;;;;;5018877;28;20126;-83
2023/05/17 09:03:33;;;;;;;10.32;1.05;;;15.10;97.90;;;;;;5008633;28;20033;-84
2023/05/17 09:05:59;;;;;;;11.63;1.98;;;15.10;97.80;;;;;;5012967;28;20128;-84
2023/05/17 09:08:27;;;;;;;9.05;1.67;;;15.00;98.40;;;;;;5023574;28;20052;-83
2023/05/17 09:10:54;;;;;;;7.60;1.70;;;15.10;98.40;;;;;;5009341;28;20044;-83
2023/05/17 09:13:20;;;;;;;11.80;2.47;;;15.10;98.50;;;;;;5029552;28;20045;-83
2023/05/17 09:15:48;;;;;;;13.70;1.83;;;15.00;98.60;;;;;;5006099;28;20060;-82
2023/05/17 09:18:15;;;;;;;11.60;2.10;;;15.30;98.80;;;;;;5007542;28;20072;-83
2023/05/17 09:20:41;;;;;;;12.73;2.03;;;15.40;98.80;;;;;;5027878;28;20048;-83
2023/05/17 09:23:11;;;;;;;14.95;2.17;;;15.40;98.60;;;;;;5006592;28;20044;-83
2023/05/17 09:25:37;;;;;;;10.27;2.05;;;15.60;99.10;;;;;;5009072;28;20067;-82
2023/05/17 09:28:06;;;;;;;13.68;2.92;;;15.50;98.60;;;;;;5032875;28;20037;-83
2023/05/17 09:30:33;;;;;;;16.38;2.60;;;15.10;98.30;;;;;;5030844;28;20660;-82
2023/05/17 09:33:09;;;;;;;11.30;2.33;;;15.10;98.80;;;;;;5009671;28;20040;-82
2023/05/17 09:35:36;;;;;;;10.95;1.73;;;15.30;99.50;;;;;;4997388;28;20060;-83
2023/05/17 09:38:10;;;;;;;14.27;1.95;;;15.60;99.90;;;;;;5014692;28;20045;-83
2023/05/17 09:40:47;;;;;;;13.48;2.13;;;15.80;98.60;;;;;;5017207;28;20048;-83
2023/05/17 09:43:21;;;;;;;15.95;2.33;;;15.80;98.90;;;;;;5033109;28;20076;-83
2023/05/17 09:45:55;;;;;;;11.63;1.77;;;15.70;98.70;;;;;;5033328;28;20039;-84
2023/05/17 09:48:21;;;;;;;13.77;2.42;;;15.50;98.70;;;;;;5028649;28;20766;-83
2023/05/17 09:50:51;;;;;;;11.18;1.88;;;15.50;99.00;;;;;;5009750;28;20032;-84
2023/05/17 09:53:30;;;;;;;14.73;2.13;;;15.30;98.90;;;;;;5026672;28;20040;-82
2023/05/17 09:56:01;;;;;;;10.38;1.80;;;15.20;99.20;;;;;;5019392;28;20609;-83
2023/05/17 09:58:30;;;;;;;10.95;1.30;;;15.00;99.00;;;;;;5027625;28;20053;-83
2023/05/17 10:01:04;;;;;;;8.85;1.50;;;14.90;98.70;;;;;;5023257;28;20049;-84
2023/05/17 10:03:39;;;;;;;8.82;1.10;;;14.80;98.60;;;;;;4986346;28;20046;-83
2023/05/17 10:06:07;;;;;;;8.43;1.70;;;14.80;98.60;;;;;;5006955;28;20124;-83
2023/05/17 10:08:34;;;;;;;7.90;1.98;;;14.90;98.50;;;;;;5025739;28;20039;-83
2023/05/17 10:11:09;;;;;;;9.95;2.00;;;15.10;98.40;;;;;;5009059;28;20040;-83
2023/05/17 10:13:39;;;;;;;;;;;15.30;98.70;;;;;;4990961;28;20141;-83
2023/05/17 10:16:05;;;;;;;9.82;1.55;;;15.20;97.40;;;;;;5008408;28;19925;-83
2023/05/17 10:18:32;;;;;;;8.18;1.90;;;14.90;97.40;;;;;;5024167;28;20055;-83
2023/05/17 10:20:58;;;;;;;8.65;1.48;;;14.80;97.70;;;;;;5006645;28;20041;-83
2023/05/17 10:23:25;;;;;;;7.63;1.70;;;14.90;98.20;;;;;;5006411;28;20079;-83
2023/05/17 10:25:51;;;;;;;8.88;1.98;;;14.90;98.00;;;;;;5014922;28;21069;-82
2023/05/17 10:28:31;;;;;;;10.82;1.80;;;14.90;97.90;;;;;;5019905;28;20106;-82
2023/05/17 10:31:06;;;;;;;8.35;1.55;;;15.00;97.50;;;;;;5014555;28;20218;-83
2023/05/17 10:33:32;;;;;;;8.82;2.03;;;15.10;97.30;;;;;;5015167;28;22216;-82
2023/05/17 10:36:00;;;;;;;8.25;1.40;;;15.10;98.50;;;;;;5017887;28;20045;-83
2023/05/17 10:38:26;;;;;;;6.70;1.27;;;15.10;98.70;;;;;;5010742;28;20514;-82
2023/05/17 10:40:54;;;;;;;9.60;1.33;;;15.00;98.00;;;;;;5014821;28;20132;-82
2023/05/17 10:43:21;;;;;;;10.07;1.33;;;15.10;97.90;;;;;;5000918;28;20042;-81
2023/05/17 10:45:46;;;;;;;7.70;1.45;;;14.90;96.50;;;;;;4998487;28;20064;-83
2023/05/17 10:48:15;;;;;;;8.70;1.95;;;15.10;98.20;;;;;;5014895;28;20040;-84
2023/05/17 10:50:45;;;;;;;10.55;1.63;;;15.20;98.00;;;;;;5018942;28;20032;-82
2023/05/17 10:53:11;;;;;;;8.23;1.45;;;15.10;97.90;;;;;;5036757;28;20059;-83
2023/05/17 10:55:42;;;;;;;9.63;1.90;;;15.30;98.10;;;;;;5026200;28;20053;-83
2023/05/17 10:58:16;;;;;;;6.00;1.42;;;16.20;98.20;;;;;;5013570;28;20048;-82
2023/05/17 11:00:45;;;;;;;9.95;1.08;;;16.10;97.90;;;;;;5036246;28;20048;-84
2023/05/17 11:03:16;;;;;;;5.63;1.25;;;16.00;95.50;;;;;;5006124;28;20044;-83
2023/05/17 11:06:03;;;;;;;6.35;1.00;;;15.90;97.10;;;;;;5004507;28;20090;-83
2023/05/17 11:08:29;;;;;;;9.57;1.40;;;15.80;97.30;;;;;;5037356;28;20062;-84
2023/05/17 11:11:27;;;;;;;6.80;1.70;;;15.70;97.20;;;;;;5017583;28;20041;-84
2023/05/17 11:13:56;;;;;;;6.47;1.02;;;15.60;96.80;;;;;;4961622;28;20072;-83
2023/05/17 11:16:42;;;;;;;8.10;1.38;;;15.70;96.90;;;;;;5001411;28;20056;-83
2023/05/17 11:19:11;;;;;;;9.75;1.88;;;15.80;97.20;;;;;;5000197;28;20153;-83
2023/05/17 11:21:45;;;;;;;10.20;1.52;;;16.10;97.10;;;;;;5035923;28;20064;-83
2023/05/17 11:24:15;;;;;;;6.05;1.80;;;16.40;97.20;;;;;;5037111;28;20049;-83
2023/05/17 11:26:44;;;;;;;7.35;1.65;;;16.40;96.30;;;;;;5019176;28;20068;-84
2023/05/17 11:29:11;;;;;;;11.80;1.98;;;16.30;96.30;;;;;;5023290;28;20059;-84
2023/05/17 11:31:46;;;;;;;6.50;1.40;;;16.20;96.80;;;;;;5023882;28;20056;-84
2023/05/17 11:34:11;;;;;;;7.05;1.33;;;16.20;96.80;;;;;;5020986;28;21027;-82
2023/05/17 11:36:51;;;;;;;5.78;1.65;;;16.60;97.90;;;;;;5007675;28;20051;-83
2023/05/17 11:39:20;;;;;;;7.53;1.30;;;16.80;98.10;;;;;;5017629;28;22460;-83
2023/05/17 11:41:50;;;;;;;5.05;0.90;;;16.90;96.80;;;;;;5035906;28;20488;-84
2023/05/17 11:44:29;;;;;;;6.82;1.77;;;17.00;96.70;;;;;;4999983;28;20060;-84
2023/05/17 11:47:02;;;;;;;5.85;1.40;;;17.00;95.60;;;;;;5017352;28;20037;-84
2023/05/17 11:49:31;;;;;;;4.38;1.23;;;16.90;97.00;;;;;;5023260;28;21905;-83
2023/05/17 11:51:57;;;;;;;6.90;1.20;;;16.80;96.70;;;;;;5039069;28;20494;-83
2023/05/17 11:54:24;;;;;;;9.73;1.73;;;16.70;96.80;;;;;;5000066;28;20487;-83
2023/05/17 11:56:52;;;;;;;8.95;2.05;;;16.80;96.50;;;;;;5031747;28;20137;-84
2023/05/17 11:59:19;;;;;;;7.85;1.67;;;16.40;95.20;;;;;;5015907;28;20033;-83
2023/05/17 12:01:45;;;;;;;6.53;1.30;;;16.10;94.70;;;;;;5033348;28;20507;-83
2023/05/17 12:04:11;;;;;;;12.90;1.75;;;15.80;95.50;;;;;;5039129;28;20048;-83
2023/05/17 12:06:38;;;;;;;8.15;1.13;;;16.00;97.40;;;;;;5017803;28;20041;-82
2023/05/17 12:09:09;;;;;;;6.50;1.25;;;16.30;97.40;;;;;;5017889;28;20505;-83
2023/05/17 12:11:35;;;;;;;4.65;0.88;;;16.60;97.30;;;;;;5000062;28;21557;-83
2023/05/17 12:14:00;;;;;;;11.80;2.60;;;16.80;96.60;;;;;;5015389;28;20068;-83
2023/05/17 12:16:28;;;;;;;8.55;1.90;;;17.00;97.30;;;;;;5034772;28;20040;-83
2023/05/17 12:18:54;;;;;;;9.40;1.55;;;17.20;97.50;;;;;;5025318;28;21526;-83
2023/05/17 12:21:20;;;;;;;8.40;1.50;;;16.90;95.90;;;;;;5022148;28;20045;-84
2023/05/17 12:23:49;;;;;;;7.82;1.60;;;16.40;95.20;;;;;;5023854;28;20037;-80
2023/05/17 12:26:16;;;;;;;8.07;1.45;;;16.10;96.30;;;;;;5038174;28;20063;-83
2023/05/17 12:28:53;;;;;;;8.15;1.35;;;16.00;96.70;;;;;;5020717;28;20037;-82
2023/05/17 12:31:31;;;;;;;9.60;1.30;;;15.70;95.80;;;;;;5018857;28;20047;-82
2023/05/17 12:33:58;;;;;;;6.55;1.38;;;15.50;96.20;;;;;;5007988;28;20108;-83
2023/05/17 12:36:26;;;;;;;7.68;1.30;;;15.40;95.60;;;;;;5023987;28;20606;-81
2023/05/17 12:38:52;;;;;;;10.82;2.25;;;15.40;96.60;;;;;;5022773;28;20094;-82
2023/05/17 12:41:21;;;;;;;10.23;1.63;;;15.50;96.70;;;;;;5032796;28;20558;-84
2023/05/17 12:43:47;;;;;;;13.57;2.72;;;15.60;97.30;;;;;;5042709;28;20037;-82
2023/05/17 12:46:17;;;;;;;6.53;1.20;;;15.70;97.80;;;;;;5021610;28;20064;-82
2023/05/17 12:48:44;;;;;;;11.80;2.38;;;16.10;97.40;;;;;;5025469;28;20109;-82
2023/05/17 12:51:10;;;;;;;6.47;1.10;;;16.00;97.40;;;;;;5016623;28;20079;-82
2023/05/17 12:53:38;;;;;;;8.63;1.77;;;15.90;95.80;;;;;;5002147;28;20056;-83
2023/05/17 12:56:04;;;;;;;6.88;1.48;;;16.00;97.00;;;;;;5020613;28;20037;-82
2023/05/17 12:58:30;;;;;;;8.18;1.50;;;15.90;96.60;;;;;;5013937;28;20045;-82
2023/05/17 13:01:05;;;;;;;11.13;1.60;;;16.00;96.50;;;;;;5013413;28;20040;-82
2023/05/17 13:03:32;;;;;;;8.20;1.73;;;16.10;96.50;;;;;;5025888;28;20055;-83
2023/05/17 13:06:06;;;;;;;8.43;1.48;;;16.00;97.40;;;;;;5044027;28;20032;-84
2023/05/17 13:08:33;;;;;;;7.53;1.10;;;15.90;97.10;;;;;;5024799;28;20036;-83
2023/05/17 13:11:09;;;;;;;5.05;1.25;;;15.80;95.70;;;;;;5023146;28;20048;-82
2023/05/17 13:13:35;;;;;;;11.35;1.40;;;15.70;97.10;;;;;;5024570;28;20098;-83
2023/05/17 13:16:01;;;;;;;8.73;1.63;;;15.60;96.90;;;;;;5002724;28;20521;-84
2023/05/17 13:18:27;;;;;;;8.25;1.50;;;15.50;97.30;;;;;;5015032;28;20137;-85
2023/05/17 13:20:53;;;;;;;6.90;1.00;;;15.40;96.90;;;;;;5003394;28;20103;-82
2023/05/17 13:23:19;;;;;;;8.30;1.10;;;15.30;97.20;;;;;;5019944;28;20041;-82
2023/05/17 13:25:44;;;;;;;9.15;1.33;;;15.40;97.60;;;;;;5038619;28;20094;-83
2023/05/17 13:28:10;;;;;;;11.15;1.85;;;15.30;96.50;;;;;;5032353;28;20045;-82
2023/05/17 13:30:36;;;;;;;5.80;1.52;;;15.10;96.60;;;;;;5035016;28;20100;-83
2023/05/17 13:33:01;;;;;;;10.25;1.50;;;14.90;96.40;;;;;;5001921;28;20040;-83
2023/05/17 13:35:27;;;;;;;8.40;1.33;;;14.80;96.90;;;;;;5041363;28;20045;-83
2023/05/17 13:37:53;;;;;;;9.20;1.13;;;14.80;97.10;;;;;;5021887;28;20182;-82
2023/05/17 13:40:18;;;;;;;5.53;1.30;;;14.90;97.30;;;;;;5020304;28;20128;-83
2023/05/17 13:42:44;;;;;;;8.48;1.30;;;14.90;96.70;;;;;;5008863;28;20044;-84
2023/05/17 13:45:11;;;;;;;8.77;1.33;;;15.00;96.60;;;;;;5039296;28;20037;-83